sensor_id;sensor_type;location;lat;lon;timestamp;temperature;humidity
63317;DHT22;49822;41.468;13.560;2023-03-01T00:01:17;10.00;88.20
63317;DHT22;49822;41.468;13.560;2023-03-01T00:03:45;10.00;88.10
63317;DHT22;49822;41.468;13.560;2023-03-01T00:06:13;9.90;88.70
63317;DHT22;49822;41.468;13.560;2023-03-01T00:08:41;9.80;88.80
63317;DHT22;49822;41.468;13.560;2023-03-01T00:11:26;9.50;88.00
63317;DHT22;49822;41.468;13.560;2023-03-01T00:13:57;9.30;88.20
63317;DHT22;49822;41.468;13.560;2023-03-01T00:16:26;9.10;88.60
63317;DHT22;49822;41.468;13.560;2023-03-01T00:18:56;9.10;89.10
63317;DHT22;49822;41.468;13.560;2023-03-01T00:21:24;9.10;89.40
63317;DHT22;49822;41.468;13.560;2023-03-01T00:23:53;9.10;89.50
63317;DHT22;49822;41.468;13.560;2023-03-01T00:26:24;9.10;89.10
63317;DHT22;49822;41.468;13.560;2023-03-01T00:28:52;9.00;89.30
63317;DHT22;49822;41.468;13.560;2023-03-01T00:31:22;9.00;89.20
63317;DHT22;49822;41.468;13.560;2023-03-01T00:34:02;9.10;88.40
63317;DHT22;49822;41.468;13.560;2023-03-01T00:36:36;9.30;89.20
63317;DHT22;49822;41.468;13.560;2023-03-01T00:39:07;9.30;88.70
63317;DHT22;49822;41.468;13.560;2023-03-01T00:41:36;9.30;87.70
63317;DHT22;49822;41.468;13.560;2023-03-01T00:44:04;9.30;88.00
63317;DHT22;49822;41.468;13.560;2023-03-01T00:46:31;9.40;89.00
63317;DHT22;49822;41.468;13.560;2023-03-01T00:48:59;9.50;89.80
63317;DHT22;49822;41.468;13.560;2023-03-01T00:51:29;9.70;89.80
63317;DHT22;49822;41.468;13.560;2023-03-01T00:54:00;9.50;89.80
63317;DHT22;49822;41.468;13.560;2023-03-01T00:56:28;9.60;90.10
63317;DHT22;49822;41.468;13.560;2023-03-01T00:58:57;9.60;89.60
63317;DHT22;49822;41.468;13.560;2023-03-01T01:01:26;9.60;89.70
63317;DHT22;49822;41.468;13.560;2023-03-01T01:03:59;9.70;90.20
63317;DHT22;49822;41.468;13.560;2023-03-01T01:06:33;9.70;90.20
63317;DHT22;49822;41.468;13.560;2023-03-01T01:09:02;9.60;90.70
63317;DHT22;49822;41.468;13.560;2023-03-01T01:11:30;9.60;90.30
63317;DHT22;49822;41.468;13.560;2023-03-01T01:13:58;9.60;90.20
63317;DHT22;49822;41.468;13.560;2023-03-01T01:16:27;9.60;90.30
63317;DHT22;49822;41.468;13.560;2023-03-01T01:18:57;9.70;90.50
63317;DHT22;49822;41.468;13.560;2023-03-01T01:21:25;9.60;90.10
63317;DHT22;49822;41.468;13.560;2023-03-01T01:23:53;9.60;90.20
63317;DHT22;49822;41.468;13.560;2023-03-01T01:26:24;9.60;90.10
63317;DHT22;49822;41.468;13.560;2023-03-01T01:28:54;9.70;90.30
63317;DHT22;49822;41.468;13.560;2023-03-01T01:31:23;9.80;90.00
63317;DHT22;49822;41.468;13.560;2023-03-01T01:33:52;9.80;90.20
63317;DHT22;49822;41.468;13.560;2023-03-01T01:36:20;9.80;90.00
63317;DHT22;49822;41.468;13.560;2023-03-01T01:38:48;9.80;90.20
63317;DHT22;49822;41.468;13.560;2023-03-01T01:41:18;9.80;90.10
63317;DHT22;49822;41.468;13.560;2023-03-01T01:43:49;9.70;90.20
63317;DHT22;49822;41.468;13.560;2023-03-01T01:46:28;9.70;90.70
63317;DHT22;49822;41.468;13.560;2023-03-01T01:49:10;9.70;90.90
63317;DHT22;49822;41.468;13.560;2023-03-01T01:51:44;9.60;90.30
63317;DHT22;49822;41.468;13.560;2023-03-01T01:54:38;9.50;91.00
63317;DHT22;49822;41.468;13.560;2023-03-01T01:57:11;9.20;91.90
63317;DHT22;49822;41.468;13.560;2023-03-01T01:59:41;9.20;91.80
63317;DHT22;49822;41.468;13.560;2023-03-01T02:02:12;9.10;92.10
63317;DHT22;49822;41.468;13.560;2023-03-01T02:04:40;9.20;92.30
63317;DHT22;49822;41.468;13.560;2023-03-01T02:07:20;9.20;91.70
63317;DHT22;49822;41.468;13.560;2023-03-01T02:09:51;9.30;91.70
63317;DHT22;49822;41.468;13.560;2023-03-01T02:12:21;9.50;91.30
63317;DHT22;49822;41.468;13.560;2023-03-01T02:14:50;9.50;91.60
63317;DHT22;49822;41.468;13.560;2023-03-01T02:17:18;9.40;90.60
63317;DHT22;49822;41.468;13.560;2023-03-01T02:22:37;9.60;90.70
63317;DHT22;49822;41.468;13.560;2023-03-01T02:30:47;9.50;90.50
63317;DHT22;49822;41.468;13.560;2023-03-01T02:33:38;9.60;90.00
63317;DHT22;49822;41.468;13.560;2023-03-01T02:36:17;9.60;90.20
63317;DHT22;49822;41.468;13.560;2023-03-01T02:38:47;9.60;90.70
63317;DHT22;49822;41.468;13.560;2023-03-01T02:41:17;9.70;90.20
63317;DHT22;49822;41.468;13.560;2023-03-01T02:43:46;9.50;90.90
63317;DHT22;49822;41.468;13.560;2023-03-01T02:46:17;9.50;90.60
63317;DHT22;49822;41.468;13.560;2023-03-01T02:48:55;9.20;91.00
63317;DHT22;49822;41.468;13.560;2023-03-01T02:54:12;9.10;91.40
63317;DHT22;49822;41.468;13.560;2023-03-01T02:56:43;9.10;90.90
63317;DHT22;49822;41.468;13.560;2023-03-01T02:59:13;9.20;90.90
63317;DHT22;49822;41.468;13.560;2023-03-01T03:01:40;9.20;91.00
63317;DHT22;49822;41.468;13.560;2023-03-01T03:04:13;9.30;90.80
63317;DHT22;49822;41.468;13.560;2023-03-01T03:06:48;9.30;90.60
63317;DHT22;49822;41.468;13.560;2023-03-01T03:09:17;9.40;90.50
63317;DHT22;49822;41.468;13.560;2023-03-01T03:11:45;9.30;89.70
63317;DHT22;49822;41.468;13.560;2023-03-01T03:14:14;9.20;90.00
63317;DHT22;49822;41.468;13.560;2023-03-01T03:16:48;9.20;90.10
63317;DHT22;49822;41.468;13.560;2023-03-01T03:19:18;9.20;89.80
63317;DHT22;49822;41.468;13.560;2023-03-01T03:21:46;9.20;89.40
63317;DHT22;49822;41.468;13.560;2023-03-01T03:24:14;9.30;89.40
63317;DHT22;49822;41.468;13.560;2023-03-01T03:26:41;9.30;89.30
63317;DHT22;49822;41.468;13.560;2023-03-01T03:29:09;9.40;88.90
63317;DHT22;49822;41.468;13.560;2023-03-01T03:31:36;9.30;88.90
63317;DHT22;49822;41.468;13.560;2023-03-01T03:34:04;9.10;88.40
63317;DHT22;49822;41.468;13.560;2023-03-01T03:36:31;9.20;88.60
63317;DHT22;49822;41.468;13.560;2023-03-01T03:38:59;9.20;89.10
63317;DHT22;49822;41.468;13.560;2023-03-01T03:41:26;9.20;88.70
63317;DHT22;49822;41.468;13.560;2023-03-01T03:43:54;9.30;88.20
63317;DHT22;49822;41.468;13.560;2023-03-01T03:46:21;9.10;87.50
63317;DHT22;49822;41.468;13.560;2023-03-01T03:48:49;9.00;88.00
63317;DHT22;49822;41.468;13.560;2023-03-01T03:51:18;9.00;87.50
63317;DHT22;49822;41.468;13.560;2023-03-01T03:53:45;9.00;87.80
63317;DHT22;49822;41.468;13.560;2023-03-01T03:56:13;8.90;88.00
63317;DHT22;49822;41.468;13.560;2023-03-01T03:58:41;8.70;88.20
63317;DHT22;49822;41.468;13.560;2023-03-01T04:01:08;8.60;87.60
63317;DHT22;49822;41.468;13.560;2023-03-01T04:03:36;8.50;87.40
63317;DHT22;49822;41.468;13.560;2023-03-01T04:06:04;8.50;86.60
63317;DHT22;49822;41.468;13.560;2023-03-01T04:08:32;8.50;86.50
63317;DHT22;49822;41.468;13.560;2023-03-01T04:11:01;8.60;86.00
63317;DHT22;49822;41.468;13.560;2023-03-01T04:13:48;8.50;87.20
63317;DHT22;49822;41.468;13.560;2023-03-01T04:16:17;8.50;87.30
63317;DHT22;49822;41.468;13.560;2023-03-01T04:18:45;8.30;87.30
63317;DHT22;49822;41.468;13.560;2023-03-01T04:21:13;8.40;87.40
63317;DHT22;49822;41.468;13.560;2023-03-01T04:23:41;8.20;87.30
63317;DHT22;49822;41.468;13.560;2023-03-01T04:26:09;8.40;87.70
63317;DHT22;49822;41.468;13.560;2023-03-01T04:28:38;8.40;86.90
63317;DHT22;49822;41.468;13.560;2023-03-01T04:31:13;8.40;88.40
63317;DHT22;49822;41.468;13.560;2023-03-01T04:33:46;8.40;88.80
63317;DHT22;49822;41.468;13.560;2023-03-01T04:36:15;8.40;88.50
63317;DHT22;49822;41.468;13.560;2023-03-01T04:38:44;8.50;88.00
63317;DHT22;49822;41.468;13.560;2023-03-01T04:41:16;8.50;88.00
63317;DHT22;49822;41.468;13.560;2023-03-01T04:43:45;8.50;88.30
63317;DHT22;49822;41.468;13.560;2023-03-01T04:46:15;8.40;88.70
63317;DHT22;49822;41.468;13.560;2023-03-01T04:48:44;8.40;88.80
63317;DHT22;49822;41.468;13.560;2023-03-01T04:51:11;8.60;88.70
63317;DHT22;49822;41.468;13.560;2023-03-01T04:53:41;8.50;88.80
63317;DHT22;49822;41.468;13.560;2023-03-01T04:56:10;8.60;88.50
63317;DHT22;49822;41.468;13.560;2023-03-01T04:58:38;8.40;87.90
63317;DHT22;49822;41.468;13.560;2023-03-01T05:01:13;8.20;88.40
63317;DHT22;49822;41.468;13.560;2023-03-01T05:03:45;8.00;88.90
63317;DHT22;49822;41.468;13.560;2023-03-01T05:06:14;7.70;89.10
63317;DHT22;49822;41.468;13.560;2023-03-01T05:08:42;7.30;89.80
63317;DHT22;49822;41.468;13.560;2023-03-01T05:11:11;7.20;90.50
63317;DHT22;49822;41.468;13.560;2023-03-01T05:13:39;7.00;90.50
63317;DHT22;49822;41.468;13.560;2023-03-01T05:16:08;7.10;90.20
63317;DHT22;49822;41.468;13.560;2023-03-01T05:18:39;7.00;89.60
63317;DHT22;49822;41.468;13.560;2023-03-01T05:21:15;7.10;89.90
63317;DHT22;49822;41.468;13.560;2023-03-01T05:23:45;7.10;89.70
63317;DHT22;49822;41.468;13.560;2023-03-01T05:26:15;7.20;88.60
63317;DHT22;49822;41.468;13.560;2023-03-01T05:28:59;7.10;88.40
63317;DHT22;49822;41.468;13.560;2023-03-01T05:31:28;7.00;89.30
63317;DHT22;49822;41.468;13.560;2023-03-01T05:33:57;7.20;89.80
63317;DHT22;49822;41.468;13.560;2023-03-01T05:36:25;7.20;89.40
63317;DHT22;49822;41.468;13.560;2023-03-01T05:38:53;7.40;89.00
63317;DHT22;49822;41.468;13.560;2023-03-01T05:41:21;7.40;88.90
63317;DHT22;49822;41.468;13.560;2023-03-01T05:43:48;7.40;88.20
63317;DHT22;49822;41.468;13.560;2023-03-01T05:46:16;7.10;87.40
63317;DHT22;49822;41.468;13.560;2023-03-01T05:48:44;6.90;88.20
63317;DHT22;49822;41.468;13.560;2023-03-01T05:51:12;6.90;88.10
63317;DHT22;49822;41.468;13.560;2023-03-01T05:53:39;7.10;88.60
63317;DHT22;49822;41.468;13.560;2023-03-01T05:56:07;7.40;88.60
63317;DHT22;49822;41.468;13.560;2023-03-01T05:58:35;7.10;87.10
63317;DHT22;49822;41.468;13.560;2023-03-01T06:01:04;7.20;87.00
63317;DHT22;49822;41.468;13.560;2023-03-01T06:03:32;7.20;87.20
63317;DHT22;49822;41.468;13.560;2023-03-01T06:05:59;7.30;87.60
63317;DHT22;49822;41.468;13.560;2023-03-01T06:08:27;7.10;87.00
63317;DHT22;49822;41.468;13.560;2023-03-01T06:10:54;7.30;87.50
63317;DHT22;49822;41.468;13.560;2023-03-01T06:13:23;7.10;87.80
63317;DHT22;49822;41.468;13.560;2023-03-01T06:15:51;7.30;88.20
63317;DHT22;49822;41.468;13.560;2023-03-01T06:18:19;7.60;88.20
63317;DHT22;49822;41.468;13.560;2023-03-01T06:20:55;7.70;87.80
63317;DHT22;49822;41.468;13.560;2023-03-01T06:23:24;8.00;87.90
63317;DHT22;49822;41.468;13.560;2023-03-01T06:25:51;8.00;87.80
63317;DHT22;49822;41.468;13.560;2023-03-01T06:28:19;8.20;87.50
63317;DHT22;49822;41.468;13.560;2023-03-01T06:30:47;8.30;87.30
63317;DHT22;49822;41.468;13.560;2023-03-01T06:33:14;8.30;87.20
63317;DHT22;49822;41.468;13.560;2023-03-01T06:35:42;8.40;87.20
63317;DHT22;49822;41.468;13.560;2023-03-01T06:38:10;8.40;87.30
63317;DHT22;49822;41.468;13.560;2023-03-01T06:40:37;8.30;86.50
63317;DHT22;49822;41.468;13.560;2023-03-01T06:43:05;8.40;87.30
63317;DHT22;49822;41.468;13.560;2023-03-01T06:45:34;8.40;88.10
63317;DHT22;49822;41.468;13.560;2023-03-01T06:48:06;8.30;88.20
63317;DHT22;49822;41.468;13.560;2023-03-01T06:50:34;8.40;88.10
63317;DHT22;49822;41.468;13.560;2023-03-01T06:53:02;8.60;87.80
63317;DHT22;49822;41.468;13.560;2023-03-01T06:55:31;8.60;87.30
63317;DHT22;49822;41.468;13.560;2023-03-01T06:58:00;8.70;87.30
63317;DHT22;49822;41.468;13.560;2023-03-01T07:00:39;8.70;87.10
63317;DHT22;49822;41.468;13.560;2023-03-01T07:03:25;8.90;87.60
63317;DHT22;49822;41.468;13.560;2023-03-01T07:05:57;9.10;87.90
63317;DHT22;49822;41.468;13.560;2023-03-01T07:08:25;9.30;87.60
63317;DHT22;49822;41.468;13.560;2023-03-01T07:10:58;9.30;87.30
63317;DHT22;49822;41.468;13.560;2023-03-01T07:13:25;9.30;87.30
63317;DHT22;49822;41.468;13.560;2023-03-01T07:15:53;9.70;87.10
63317;DHT22;49822;41.468;13.560;2023-03-01T07:18:20;9.80;87.00
63317;DHT22;49822;41.468;13.560;2023-03-01T07:20:49;9.90;86.80
63317;DHT22;49822;41.468;13.560;2023-03-01T07:23:18;9.90;86.10
63317;DHT22;49822;41.468;13.560;2023-03-01T07:25:52;10.00;86.20
63317;DHT22;49822;41.468;13.560;2023-03-01T07:28:22;10.10;86.20
63317;DHT22;49822;41.468;13.560;2023-03-01T07:30:50;10.10;85.60
63317;DHT22;49822;41.468;13.560;2023-03-01T07:33:17;10.40;84.90
63317;DHT22;49822;41.468;13.560;2023-03-01T07:35:45;10.60;84.70
63317;DHT22;49822;41.468;13.560;2023-03-01T07:38:12;10.70;83.90
63317;DHT22;49822;41.468;13.560;2023-03-01T07:40:40;10.80;83.40
63317;DHT22;49822;41.468;13.560;2023-03-01T07:43:07;11.00;81.70
63317;DHT22;49822;41.468;13.560;2023-03-01T07:45:36;10.60;81.20
63317;DHT22;49822;41.468;13.560;2023-03-01T07:48:05;10.70;83.10
63317;DHT22;49822;41.468;13.560;2023-03-01T07:50:32;10.80;82.10
63317;DHT22;49822;41.468;13.560;2023-03-01T07:52:59;11.00;82.70
63317;DHT22;49822;41.468;13.560;2023-03-01T07:55:27;11.10;81.90
63317;DHT22;49822;41.468;13.560;2023-03-01T07:57:55;11.20;81.80
63317;DHT22;49822;41.468;13.560;2023-03-01T08:00:24;11.30;81.50
63317;DHT22;49822;41.468;13.560;2023-03-01T08:02:54;11.40;80.50
63317;DHT22;49822;41.468;13.560;2023-03-01T08:05:22;11.30;81.00
63317;DHT22;49822;41.468;13.560;2023-03-01T08:07:49;11.50;81.60
63317;DHT22;49822;41.468;13.560;2023-03-01T08:10:17;11.60;81.70
63317;DHT22;49822;41.468;13.560;2023-03-01T08:12:44;11.60;81.10
63317;DHT22;49822;41.468;13.560;2023-03-01T08:15:11;11.70;81.30
63317;DHT22;49822;41.468;13.560;2023-03-01T08:17:39;11.70;81.10
63317;DHT22;49822;41.468;13.560;2023-03-01T08:20:08;11.80;79.90
63317;DHT22;49822;41.468;13.560;2023-03-01T08:22:39;11.70;80.40
63317;DHT22;49822;41.468;13.560;2023-03-01T08:25:07;11.70;80.70
63317;DHT22;49822;41.468;13.560;2023-03-01T08:27:35;11.60;81.00
63317;DHT22;49822;41.468;13.560;2023-03-01T08:30:03;11.40;80.20
63317;DHT22;49822;41.468;13.560;2023-03-01T08:32:37;11.30;79.50
63317;DHT22;49822;41.468;13.560;2023-03-01T08:35:06;11.20;80.00
63317;DHT22;49822;41.468;13.560;2023-03-01T08:37:34;11.20;79.50
63317;DHT22;49822;41.468;13.560;2023-03-01T08:40:01;11.10;79.20
63317;DHT22;49822;41.468;13.560;2023-03-01T08:42:32;11.10;80.10
63317;DHT22;49822;41.468;13.560;2023-03-01T08:45:00;11.00;80.60
63317;DHT22;49822;41.468;13.560;2023-03-01T08:47:27;10.90;80.70
63317;DHT22;49822;41.468;13.560;2023-03-01T08:49:55;11.00;80.50
63317;DHT22;49822;41.468;13.560;2023-03-01T08:52:22;11.00;80.50
63317;DHT22;49822;41.468;13.560;2023-03-01T08:54:52;11.00;80.50
63317;DHT22;49822;41.468;13.560;2023-03-01T08:57:19;11.10;80.80
63317;DHT22;49822;41.468;13.560;2023-03-01T08:59:47;11.20;81.20
63317;DHT22;49822;41.468;13.560;2023-03-01T09:02:17;11.40;81.30
63317;DHT22;49822;41.468;13.560;2023-03-01T09:04:44;11.50;81.30
63317;DHT22;49822;41.468;13.560;2023-03-01T09:07:12;11.50;80.70
63317;DHT22;49822;41.468;13.560;2023-03-01T09:09:39;11.70;80.90
63317;DHT22;49822;41.468;13.560;2023-03-01T09:12:07;11.70;80.20
63317;DHT22;49822;41.468;13.560;2023-03-01T09:14:35;11.70;79.10
63317;DHT22;49822;41.468;13.560;2023-03-01T09:17:04;11.70;79.10
63317;DHT22;49822;41.468;13.560;2023-03-01T09:19:32;11.70;79.60
63317;DHT22;49822;41.468;13.560;2023-03-01T09:21:59;11.80;79.20
63317;DHT22;49822;41.468;13.560;2023-03-01T09:24:27;11.70;79.90
63317;DHT22;49822;41.468;13.560;2023-03-01T09:26:54;11.80;79.10
63317;DHT22;49822;41.468;13.560;2023-03-01T09:29:23;11.90;79.30
63317;DHT22;49822;41.468;13.560;2023-03-01T09:31:51;11.90;79.40
63317;DHT22;49822;41.468;13.560;2023-03-01T09:34:18;12.00;78.90
63317;DHT22;49822;41.468;13.560;2023-03-01T09:36:50;12.10;78.60
63317;DHT22;49822;41.468;13.560;2023-03-01T09:39:18;12.20;79.40
63317;DHT22;49822;41.468;13.560;2023-03-01T09:41:54;12.40;79.60
63317;DHT22;49822;41.468;13.560;2023-03-01T09:44:46;12.80;78.30
63317;DHT22;49822;41.468;13.560;2023-03-01T09:47:24;13.30;78.10
63317;DHT22;49822;41.468;13.560;2023-03-01T09:50:14;13.50;76.80
63317;DHT22;49822;41.468;13.560;2023-03-01T09:52:48;14.00;77.40
63317;DHT22;49822;41.468;13.560;2023-03-01T09:55:27;14.30;77.40
63317;DHT22;49822;41.468;13.560;2023-03-01T10:00:47;14.90;75.30
63317;DHT22;49822;41.468;13.560;2023-03-01T10:03:42;15.10;72.80
63317;DHT22;49822;41.468;13.560;2023-03-01T10:09:05;15.20;75.40
63317;DHT22;49822;41.468;13.560;2023-03-01T10:11:46;15.30;74.70
63317;DHT22;49822;41.468;13.560;2023-03-01T10:16:55;15.40;74.00
63317;DHT22;49822;41.468;13.560;2023-03-01T10:24:42;15.40;72.90
63317;DHT22;49822;41.468;13.560;2023-03-01T10:32:38;15.00;74.80
63317;DHT22;49822;41.468;13.560;2023-03-01T10:35:21;14.90;74.70
63317;DHT22;49822;41.468;13.560;2023-03-01T10:38:06;14.70;74.90
63317;DHT22;49822;41.468;13.560;2023-03-01T10:40:36;14.60;75.50
63317;DHT22;49822;41.468;13.560;2023-03-01T10:43:16;14.30;76.60
63317;DHT22;49822;41.468;13.560;2023-03-01T10:45:44;14.20;76.30
63317;DHT22;49822;41.468;13.560;2023-03-01T10:48:14;14.10;76.20
63317;DHT22;49822;41.468;13.560;2023-03-01T10:50:48;14.10;76.30
63317;DHT22;49822;41.468;13.560;2023-03-01T10:53:41;14.20;76.90
63317;DHT22;49822;41.468;13.560;2023-03-01T10:56:12;14.00;77.20
63317;DHT22;49822;41.468;13.560;2023-03-01T10:58:59;14.00;77.60
63317;DHT22;49822;41.468;13.560;2023-03-01T11:01:30;13.90;77.20
63317;DHT22;49822;41.468;13.560;2023-03-01T11:06:37;14.00;77.80
63317;DHT22;49822;41.468;13.560;2023-03-01T11:09:19;14.00;77.40
63317;DHT22;49822;41.468;13.560;2023-03-01T11:11:56;13.70;76.40
63317;DHT22;49822;41.468;13.560;2023-03-01T11:14:26;13.60;77.10
63317;DHT22;49822;41.468;13.560;2023-03-01T11:17:11;13.60;77.10
63317;DHT22;49822;41.468;13.560;2023-03-01T11:19:39;13.40;76.70
63317;DHT22;49822;41.468;13.560;2023-03-01T11:22:16;13.10;77.30
63317;DHT22;49822;41.468;13.560;2023-03-01T11:24:51;13.10;77.50
63317;DHT22;49822;41.468;13.560;2023-03-01T11:27:40;13.10;77.00
63317;DHT22;49822;41.468;13.560;2023-03-01T11:30:27;13.30;76.30
63317;DHT22;49822;41.468;13.560;2023-03-01T11:33:24;13.20;76.50
63317;DHT22;49822;41.468;13.560;2023-03-01T11:36:03;13.40;76.40
63317;DHT22;49822;41.468;13.560;2023-03-01T11:38:35;13.40;75.90
63317;DHT22;49822;41.468;13.560;2023-03-01T11:41:35;13.50;76.20
63317;DHT22;49822;41.468;13.560;2023-03-01T11:44:23;13.60;76.70
63317;DHT22;49822;41.468;13.560;2023-03-01T11:47:10;13.60;76.30
63317;DHT22;49822;41.468;13.560;2023-03-01T11:52:51;13.40;76.00
63317;DHT22;49822;41.468;13.560;2023-03-01T11:59:04;13.50;77.10
63317;DHT22;49822;41.468;13.560;2023-03-01T12:16:31;12.90;79.20
63317;DHT22;49822;41.468;13.560;2023-03-01T12:22:06;12.30;79.70
63317;DHT22;49822;41.468;13.560;2023-03-01T12:27:29;12.30;81.10
63317;DHT22;49822;41.468;13.560;2023-03-01T12:33:06;12.20;82.80
63317;DHT22;49822;41.468;13.560;2023-03-01T12:36:08;12.20;83.20
63317;DHT22;49822;41.468;13.560;2023-03-01T12:38:46;12.30;82.30
63317;DHT22;49822;41.468;13.560;2023-03-01T12:51:38;13.10;80.20
63317;DHT22;49822;41.468;13.560;2023-03-01T12:54:40;13.30;78.40
63317;DHT22;49822;41.468;13.560;2023-03-01T12:57:25;13.60;78.50
63317;DHT22;49822;41.468;13.560;2023-03-01T13:08:49;15.60;71.80
63317;DHT22;49822;41.468;13.560;2023-03-01T13:11:23;15.40;70.20
63317;DHT22;49822;41.468;13.560;2023-03-01T13:13:51;15.60;72.40
63317;DHT22;49822;41.468;13.560;2023-03-01T13:19:24;16.50;71.00
63317;DHT22;49822;41.468;13.560;2023-03-01T13:21:53;16.60;68.80
63317;DHT22;49822;41.468;13.560;2023-03-01T13:24:40;17.10;70.00
63317;DHT22;49822;41.468;13.560;2023-03-01T13:29:51;17.10;70.70
63317;DHT22;49822;41.468;13.560;2023-03-01T13:32:28;16.90;69.70
63317;DHT22;49822;41.468;13.560;2023-03-01T13:37:37;16.30;70.50
63317;DHT22;49822;41.468;13.560;2023-03-01T13:42:56;15.90;72.10
63317;DHT22;49822;41.468;13.560;2023-03-01T13:45:41;15.80;72.60
63317;DHT22;49822;41.468;13.560;2023-03-01T13:48:25;15.60;72.00
63317;DHT22;49822;41.468;13.560;2023-03-01T13:51:03;15.40;73.50
63317;DHT22;49822;41.468;13.560;2023-03-01T13:53:35;15.30;72.90
63317;DHT22;49822;41.468;13.560;2023-03-01T13:56:13;15.10;73.20
63317;DHT22;49822;41.468;13.560;2023-03-01T13:59:00;14.90;73.00
63317;DHT22;49822;41.468;13.560;2023-03-01T14:01:34;14.80;74.00
63317;DHT22;49822;41.468;13.560;2023-03-01T14:04:14;14.90;74.10
63317;DHT22;49822;41.468;13.560;2023-03-01T14:06:44;14.80;73.80
63317;DHT22;49822;41.468;13.560;2023-03-01T14:09:23;14.80;72.30
63317;DHT22;49822;41.468;13.560;2023-03-01T14:14:47;15.60;72.30
63317;DHT22;49822;41.468;13.560;2023-03-01T14:19:58;17.20;71.80
63317;DHT22;49822;41.468;13.560;2023-03-01T14:22:28;17.60;67.90
63317;DHT22;49822;41.468;13.560;2023-03-01T14:25:17;18.10;65.80
63317;DHT22;49822;41.468;13.560;2023-03-01T14:27:55;18.40;66.40
63317;DHT22;49822;41.468;13.560;2023-03-01T14:30:26;19.00;65.70
63317;DHT22;49822;41.468;13.560;2023-03-01T14:33:01;19.40;64.40
63317;DHT22;49822;41.468;13.560;2023-03-01T14:35:34;19.70;63.40
63317;DHT22;49822;41.468;13.560;2023-03-01T14:38:02;19.50;63.60
63317;DHT22;49822;41.468;13.560;2023-03-01T14:40:34;19.30;63.70
63317;DHT22;49822;41.468;13.560;2023-03-01T14:43:08;19.40;61.60
63317;DHT22;49822;41.468;13.560;2023-03-01T14:45:38;18.70;62.10
63317;DHT22;49822;41.468;13.560;2023-03-01T14:48:07;18.90;62.90
63317;DHT22;49822;41.468;13.560;2023-03-01T14:50:40;18.90;61.60
63317;DHT22;49822;41.468;13.560;2023-03-01T14:53:26;19.40;62.30
63317;DHT22;49822;41.468;13.560;2023-03-01T14:55:56;19.90;60.10
63317;DHT22;49822;41.468;13.560;2023-03-01T14:58:27;19.20;61.40
63317;DHT22;49822;41.468;13.560;2023-03-01T15:00:58;18.80;62.80
63317;DHT22;49822;41.468;13.560;2023-03-01T15:03:44;18.20;63.30
63317;DHT22;49822;41.468;13.560;2023-03-01T15:06:18;17.80;64.40
63317;DHT22;49822;41.468;13.560;2023-03-01T15:08:49;17.30;65.10
63317;DHT22;49822;41.468;13.560;2023-03-01T15:11:19;17.00;65.70
63317;DHT22;49822;41.468;13.560;2023-03-01T15:13:50;16.60;66.20
63317;DHT22;49822;41.468;13.560;2023-03-01T15:16:44;17.80;65.30
63317;DHT22;49822;41.468;13.560;2023-03-01T15:19:18;19.60;63.10
63317;DHT22;49822;41.468;13.560;2023-03-01T15:21:49;19.70;62.20
63317;DHT22;49822;41.468;13.560;2023-03-01T15:24:26;21.40;59.60
63317;DHT22;49822;41.468;13.560;2023-03-01T15:26:58;23.60;55.60
63317;DHT22;49822;41.468;13.560;2023-03-01T15:29:30;24.90;54.00
63317;DHT22;49822;41.468;13.560;2023-03-01T15:32:03;26.10;52.90
63317;DHT22;49822;41.468;13.560;2023-03-01T15:34:33;25.50;53.20
63317;DHT22;49822;41.468;13.560;2023-03-01T15:37:03;26.30;52.70
63317;DHT22;49822;41.468;13.560;2023-03-01T15:39:43;25.50;52.90
63317;DHT22;49822;41.468;13.560;2023-03-01T15:47:39;22.30;58.00
63317;DHT22;49822;41.468;13.560;2023-03-01T15:50:22;22.40;58.00
63317;DHT22;49822;41.468;13.560;2023-03-01T15:52:51;22.00;57.50
63317;DHT22;49822;41.468;13.560;2023-03-01T15:55:25;20.90;59.80
63317;DHT22;49822;41.468;13.560;2023-03-01T15:58:05;19.90;60.50
63317;DHT22;49822;41.468;13.560;2023-03-01T16:00:34;18.90;61.80
63317;DHT22;49822;41.468;13.560;2023-03-01T16:03:10;17.70;63.90
63317;DHT22;49822;41.468;13.560;2023-03-01T16:05:39;16.90;65.60
63317;DHT22;49822;41.468;13.560;2023-03-01T16:08:06;16.30;66.70
63317;DHT22;49822;41.468;13.560;2023-03-01T16:10:34;15.90;67.90
63317;DHT22;49822;41.468;13.560;2023-03-01T16:13:02;15.40;69.70
63317;DHT22;49822;41.468;13.560;2023-03-01T16:15:33;15.10;69.50
63317;DHT22;49822;41.468;13.560;2023-03-01T16:18:07;14.20;71.70
63317;DHT22;49822;41.468;13.560;2023-03-01T16:20:37;13.30;73.40
63317;DHT22;49822;41.468;13.560;2023-03-01T16:23:07;12.50;75.80
63317;DHT22;49822;41.468;13.560;2023-03-01T16:25:35;11.70;77.20
63317;DHT22;49822;41.468;13.560;2023-03-01T16:28:03;11.40;77.80
63317;DHT22;49822;41.468;13.560;2023-03-01T16:30:45;11.30;78.10
63317;DHT22;49822;41.468;13.560;2023-03-01T16:33:13;11.10;78.90
63317;DHT22;49822;41.468;13.560;2023-03-01T16:36:05;11.00;78.60
63317;DHT22;49822;41.468;13.560;2023-03-01T16:38:33;10.90;78.50
63317;DHT22;49822;41.468;13.560;2023-03-01T16:41:01;11.10;78.80
63317;DHT22;49822;41.468;13.560;2023-03-01T16:43:30;10.90;79.10
63317;DHT22;49822;41.468;13.560;2023-03-01T16:45:58;10.70;79.40
63317;DHT22;49822;41.468;13.560;2023-03-01T16:48:26;10.80;79.70
63317;DHT22;49822;41.468;13.560;2023-03-01T16:50:58;10.90;79.30
63317;DHT22;49822;41.468;13.560;2023-03-01T16:53:27;11.00;79.20
63317;DHT22;49822;41.468;13.560;2023-03-01T16:55:58;11.00;79.80
63317;DHT22;49822;41.468;13.560;2023-03-01T16:58:26;11.20;79.50
63317;DHT22;49822;41.468;13.560;2023-03-01T17:01:17;11.20;79.00
63317;DHT22;49822;41.468;13.560;2023-03-01T17:04:40;11.20;79.10
63317;DHT22;49822;41.468;13.560;2023-03-01T17:07:52;11.00;79.00
63317;DHT22;49822;41.468;13.560;2023-03-01T17:11:15;10.60;79.40
63317;DHT22;49822;41.468;13.560;2023-03-01T17:13:44;10.60;80.20
63317;DHT22;49822;41.468;13.560;2023-03-01T17:16:22;10.50;79.90
63317;DHT22;49822;41.468;13.560;2023-03-01T17:19:22;10.10;80.60
63317;DHT22;49822;41.468;13.560;2023-03-01T17:22:32;9.90;81.70
63317;DHT22;49822;41.468;13.560;2023-03-01T17:25:32;9.70;81.90
63317;DHT22;49822;41.468;13.560;2023-03-01T17:28:28;9.90;81.70
63317;DHT22;49822;41.468;13.560;2023-03-01T17:31:10;10.10;82.00
63317;DHT22;49822;41.468;13.560;2023-03-01T17:34:13;10.20;81.80
63317;DHT22;49822;41.468;13.560;2023-03-01T17:36:55;10.30;81.20
63317;DHT22;49822;41.468;13.560;2023-03-01T17:39:57;10.30;81.00
63317;DHT22;49822;41.468;13.560;2023-03-01T17:42:24;10.00;80.90